地図

経路データ

SID SEASON NUMBER BASIN SUBBASIN NAME ISO_TIME NATURE LAT LON WMO_WIND WMO_PRES WMO_AGENCY TRACK_TYPE DIST2LAND LANDFALL IFLAG USA_AGENCY USA_ATCF_ID USA_LAT USA_LON USA_RECORD USA_STATUS USA_WIND USA_PRES USA_SSHS USA_R34_NE USA_R34_SE USA_R34_SW USA_R34_NW USA_R50_NE USA_R50_SE USA_R50_SW USA_R50_NW USA_R64_NE USA_R64_SE USA_R64_SW USA_R64_NW USA_POCI USA_ROCI USA_RMW USA_EYE TOKYO_LAT TOKYO_LON TOKYO_GRADE TOKYO_WIND TOKYO_PRES TOKYO_R50_DIR TOKYO_R50_LONG TOKYO_R50_SHORT TOKYO_R30_DIR TOKYO_R30_LONG TOKYO_R30_SHORT TOKYO_LAND CMA_LAT CMA_LON CMA_CAT CMA_WIND CMA_PRES HKO_LAT HKO_LON HKO_CAT HKO_WIND HKO_PRES NEWDELHI_LAT NEWDELHI_LON NEWDELHI_GRADE NEWDELHI_WIND NEWDELHI_PRES NEWDELHI_CI NEWDELHI_DP NEWDELHI_POCI REUNION_LAT REUNION_LON REUNION_TYPE REUNION_WIND REUNION_PRES REUNION_TNUM REUNION_CI REUNION_RMW REUNION_R34_NE REUNION_R34_SE REUNION_R34_SW REUNION_R34_NW REUNION_R50_NE REUNION_R50_SE REUNION_R50_SW REUNION_R50_NW REUNION_R64_NE REUNION_R64_SE REUNION_R64_SW REUNION_R64_NW BOM_LAT BOM_LON BOM_TYPE BOM_WIND BOM_PRES BOM_TNUM BOM_CI BOM_RMW BOM_R34_NE BOM_R34_SE BOM_R34_SW BOM_R34_NW BOM_R50_NE BOM_R50_SE BOM_R50_SW BOM_R50_NW BOM_R64_NE BOM_R64_SE BOM_R64_SW BOM_R64_NW BOM_ROCI BOM_POCI BOM_EYE BOM_POS_METHOD BOM_PRES_METHOD NADI_LAT NADI_LON NADI_CAT NADI_WIND NADI_PRES WELLINGTON_LAT WELLINGTON_LON WELLINGTON_WIND WELLINGTON_PRES DS824_LAT DS824_LON DS824_STAGE DS824_WIND DS824_PRES TD9636_LAT TD9636_LON TD9636_STAGE TD9636_WIND TD9636_PRES TD9635_LAT TD9635_LON TD9635_WIND TD9635_PRES TD9635_ROCI NEUMANN_LAT NEUMANN_LON NEUMANN_CLASS NEUMANN_WIND NEUMANN_PRES MLC_LAT MLC_LON MLC_CLASS MLC_WIND MLC_PRES USA_GUST BOM_GUST BOM_GUST_PER REUNION_GUST REUNION_GUST_PER USA_SEAHGT USA_SEARAD_NE USA_SEARAD_SE USA_SEARAD_SW USA_SEARAD_NW STORM_SPEED STORM_DIR
1977270N29289 1977 91 NA NA DOROTHY 1977-09-26 18:00:00 TS 28.5000 -71.5000 20 1010 hurdat_atl main 747 747 O_____________ hurdat_atl AL101977 28.5000 -71.5000 TD 20 1010 -1 18 54
1977270N29289 1977 91 NA NA DOROTHY 1977-09-26 21:00:00 TS 29.0310 -70.6670 main 838 835 P_____________ AL101977 29.0310 -70.6670 TD 20 1009 -1 18 56
1977270N29289 1977 91 NA NA DOROTHY 1977-09-27 00:00:00 TS 29.5000 -69.8000 20 1009 hurdat_atl main 855 855 O_____________ hurdat_atl AL101977 29.5000 -69.8000 TD 20 1009 -1 18 62
1977270N29289 1977 91 NA NA DOROTHY 1977-09-27 03:00:00 TS 29.8718 -68.8787 main 889 889 P_____________ AL101977 29.8718 -68.8787 TD 25 1007 -1 18 67
1977270N29289 1977 91 NA NA DOROTHY 1977-09-27 06:00:00 TS 30.2000 -67.9000 30 1005 hurdat_atl main 942 942 O_____________ hurdat_atl AL101977 30.2000 -67.9000 TD 30 1005 -1 19 69
1977270N29289 1977 91 NA NA DOROTHY 1977-09-27 09:00:00 TS 30.5268 -66.8710 main 993 993 P_____________ AL101977 30.5268 -66.8710 TD 35 1003 0 19 69
1977270N29289 1977 91 NA NA DOROTHY 1977-09-27 12:00:00 TS 30.9000 -65.8000 40 1002 hurdat_atl main 1051 1051 O_____________ hurdat_atl AL101977 30.9000 -65.8000 TS 40 1002 0 21 66
1977270N29289 1977 91 NA NA DOROTHY 1977-09-27 15:00:00 TS 31.3550 -64.6770 main 1111 1111 P_____________ AL101977 31.3550 -64.6770 TS 42 1001 0 21 62
1977270N29289 1977 91 NA NA DOROTHY 1977-09-27 18:00:00 TS 31.9000 -63.6000 45 1000 hurdat_atl main 1178 1178 O_____________ hurdat_atl AL101977 31.9000 -63.6000 TS 45 1000 0 21 56
1977270N29289 1977 91 NA NA DOROTHY 1977-09-27 21:00:00 TS 32.5347 -62.6104 main 1214 1186 P_____________ AL101977 32.5347 -62.6104 TS 47 998 0 20 49
1977270N29289 1977 91 NA NA DOROTHY 1977-09-28 00:00:00 TS 33.2000 -61.8000 50 996 hurdat_atl main 1186 1133 O_____________ hurdat_atl AL101977 33.2000 -61.8000 TS 50 996 0 17 42
1977270N29289 1977 91 NA NA DOROTHY 1977-09-28 03:00:00 TS 33.8137 -61.2454 main 1136 1084 P_____________ AL101977 33.8137 -61.2454 TS 55 994 0 15 35
1977270N29289 1977 91 NA NA DOROTHY 1977-09-28 06:00:00 TS 34.4000 -60.8000 60 992 hurdat_atl main 1084 1048 O_____________ hurdat_atl AL101977 34.4000 -60.8000 TS 60 992 0 14 37
1977270N29289 1977 91 NA NA DOROTHY 1977-09-28 09:00:00 TS 34.9275 -60.2415 main 1052 1010 P_____________ AL101977 34.9275 -60.2415 TS 62 990 0 14 39
1977270N29289 1977 91 NA NA DOROTHY 1977-09-28 12:00:00 TS 35.5000 -59.7000 65 988 hurdat_atl main 1010 958 O_____________ hurdat_atl AL101977 35.5000 -59.7000 HU 65 988 1 15 30
1977270N29289 1977 91 NA NA DOROTHY 1977-09-28 15:00:00 TS 36.2337 -59.3002 main 958 908 P_____________ AL101977 36.2337 -59.3002 HU 67 986 1 17 26
1977270N29289 1977 91 NA NA DOROTHY 1977-09-28 18:00:00 TS 37.0000 -58.8000 70 984 hurdat_atl main 908 883 O_____________ hurdat_atl AL101977 37.0000 -58.8000 HU 70 984 1 18 38
1977270N29289 1977 91 NA NA DOROTHY 1977-09-28 21:00:00 TS 37.6361 -57.9444 main 886 838 P_____________ AL101977 37.6361 -57.9444 HU 72 982 1 19 48
1977270N29289 1977 91 NA NA DOROTHY 1977-09-29 00:00:00 TS 38.3000 -57.0000 75 980 hurdat_atl main 838 794 O_____________ hurdat_atl AL101977 38.3000 -57.0000 HU 75 980 1 20 43
1977270N29289 1977 91 NA NA DOROTHY 1977-09-29 03:00:00 TS 39.0966 -56.2252 main 788 740 P_____________ AL101977 39.0966 -56.2252 HU 72 982 1 21 34
1977270N29289 1977 91 NA NA DOROTHY 1977-09-29 06:00:00 TS 40.0000 -55.5000 70 984 hurdat_atl main 736 640 O_____________ hurdat_atl AL101977 40.0000 -55.5000 HU 70 984 1 22 32
1977270N29289 1977 91 NA NA DOROTHY 1977-09-29 09:00:00 TS 40.9402 -54.7117 main 639 523 P_____________ AL101977 40.9402 -54.7117 HU 67 986 1 23 30
1977270N29289 1977 91 NA NA DOROTHY 1977-09-29 12:00:00 TS 42.0000 -54.0000 65 988 hurdat_atl main 512 388 O_____________ hurdat_atl AL101977 42.0000 -54.0000 HU 65 988 1 24 21
1977270N29289 1977 91 NA NA DOROTHY 1977-09-29 15:00:00 TS 43.2105 -53.5296 main 377 244 P_____________ AL101977 43.2105 -53.5296 HU 62 989 0 26 16
1977270N29289 1977 91 NA NA DOROTHY 1977-09-29 18:00:00 ET 44.5000 -53.0000 60 990 hurdat_atl main 233 126 O_____________ hurdat_atl AL101977 44.5000 -53.0000 EX 60 990 -4 27 22
1977270N29289 1977 91 NA NA DOROTHY 1977-09-29 21:00:00 ET 45.7498 -52.1102 main 130 113 P_____________ AL101977 45.7498 -52.1102 EX 55 992 -4 29 29
1977270N29289 1977 91 NA NA DOROTHY 1977-09-30 00:00:00 ET 47.0000 -51.0000 50 995 hurdat_atl main 132 132 O_____________ hurdat_atl AL101977 47.0000 -51.0000 EX 50 995 -4 30 32
1977270N29289 1977 91 NA NA DOROTHY 1977-09-30 03:00:00 ET 48.2525 -49.7870 main 222 222 P_____________ AL101977 48.2525 -49.7870 EX 47 997 -4 30 34
1977270N29289 1977 91 NA NA DOROTHY 1977-09-30 06:00:00 ET 49.5000 -48.5000 45 1000 hurdat_atl main 345 O_____________ hurdat_atl AL101977 49.5000 -48.5000 EX 45 1000 -4 30 34

IBTrACS Databaseについて

本データベースは、米国NOAAが公開する1842年以降の世界の熱帯低気圧のベストトラックデータアーカイブInternational Best Track Archive for Climate Stewardship (IBTrACS)を、ウェブで閲覧しやすい形式に変換したものです。

最終更新日:2021-11-26